sensor_id;sensor_type;location;lat;lon;timestamp;pressure;altitude;pressure_sealevel;temperature;humidity
59829;BME280;45708;51.848;107.620;2023-05-23T00:03:12;93931.72;;;24.83;26.87
59829;BME280;45708;51.848;107.620;2023-05-23T00:08:13;93925.97;;;25.70;25.79
59829;BME280;45708;51.848;107.620;2023-05-23T00:13:13;93921.69;;;25.57;25.69
59829;BME280;45708;51.848;107.620;2023-05-23T00:18:14;93895.03;;;26.39;24.95
59829;BME280;45708;51.848;107.620;2023-05-23T00:23:15;93918.69;;;26.86;23.77
59829;BME280;45708;51.848;107.620;2023-05-23T00:28:16;93918.69;;;27.17;24.00
59829;BME280;45708;51.848;107.620;2023-05-23T00:33:17;93909.75;;;27.17;23.61
59829;BME280;45708;51.848;107.620;2023-05-23T00:38:17;93914.41;;;27.16;23.74
59829;BME280;45708;51.848;107.620;2023-05-23T00:43:18;93909.53;;;27.06;23.78
59829;BME280;45708;51.848;107.620;2023-05-23T00:48:19;93906.09;;;27.09;23.80
59829;BME280;45708;51.848;107.620;2023-05-23T00:53:21;93909.56;;;28.15;23.00
59829;BME280;45708;51.848;107.620;2023-05-23T00:58:22;93906.97;;;28.41;22.55
59829;BME280;45708;51.848;107.620;2023-05-23T01:03:24;93901.22;;;27.85;22.88
59829;BME280;45708;51.848;107.620;2023-05-23T01:08:25;93901.84;;;27.78;22.87
59829;BME280;45708;51.848;107.620;2023-05-23T01:13:35;93898.28;;;28.32;21.88
59829;BME280;45708;51.848;107.620;2023-05-23T01:18:50;93894.84;;;28.35;22.07
59829;BME280;45708;51.848;107.620;2023-05-23T01:29:26;93898.25;;;28.74;21.57
59829;BME280;45708;51.848;107.620;2023-05-23T01:34:30;93896.22;;;29.40;21.09
59829;BME280;45708;51.848;107.620;2023-05-23T01:39:30;93884.63;;;29.70;20.67
59829;BME280;45708;51.848;107.620;2023-05-23T01:44:35;93882.72;;;29.21;20.82
59829;BME280;45708;51.848;107.620;2023-05-23T01:49:36;93882.91;;;28.63;20.92
59829;BME280;45708;51.848;107.620;2023-05-23T01:54:38;93884.84;;;27.81;21.42
59829;BME280;45708;51.848;107.620;2023-05-23T01:59:39;93862.78;;;26.97;22.38
59829;BME280;45708;51.848;107.620;2023-05-23T02:04:40;93874.06;;;27.31;21.97
59829;BME280;45708;51.848;107.620;2023-05-23T02:09:41;93872.44;;;27.10;22.03
59829;BME280;45708;51.848;107.620;2023-05-23T02:14:41;93852.88;;;27.71;21.08
59829;BME280;45708;51.848;107.620;2023-05-23T02:19:42;93854.47;;;28.14;20.50
59829;BME280;45708;51.848;107.620;2023-05-23T02:24:43;93843.44;;;27.65;20.77
59829;BME280;45708;51.848;107.620;2023-05-23T02:29:44;93855.56;;;28.29;20.28
59829;BME280;45708;51.848;107.620;2023-05-23T02:34:45;93847.72;;;27.85;20.47
59829;BME280;45708;51.848;107.620;2023-05-23T02:39:45;93848.28;;;27.95;20.28
59829;BME280;45708;51.848;107.620;2023-05-23T02:44:46;93832.59;;;27.65;20.13
59829;BME280;45708;51.848;107.620;2023-05-23T02:49:47;93828.81;;;27.35;20.40
59829;BME280;45708;51.848;107.620;2023-05-23T02:54:48;93821.16;;;25.67;22.41
59829;BME280;45708;51.848;107.620;2023-05-23T02:59:49;93833.38;;;24.14;24.32
59829;BME280;45708;51.848;107.620;2023-05-23T03:04:49;93829.00;;;23.56;24.81
59829;BME280;45708;51.848;107.620;2023-05-23T03:09:50;93822.75;;;22.42;26.10
59829;BME280;45708;51.848;107.620;2023-05-23T03:14:51;93809.19;;;22.30;27.04
59829;BME280;45708;51.848;107.620;2023-05-23T03:19:52;93808.66;;;22.45;25.21
59829;BME280;45708;51.848;107.620;2023-05-23T03:24:52;93793.72;;;22.27;24.54
59829;BME280;45708;51.848;107.620;2023-05-23T03:29:53;93797.59;;;22.09;24.69
59829;BME280;45708;51.848;107.620;2023-05-23T03:34:54;93785.41;;;21.94;23.70
59829;BME280;45708;51.848;107.620;2023-05-23T03:39:55;93778.91;;;22.04;23.72
59829;BME280;45708;51.848;107.620;2023-05-23T03:44:56;93771.66;;;21.96;23.58
59829;BME280;45708;51.848;107.620;2023-05-23T03:49:56;93766.91;;;21.93;23.41
59829;BME280;45708;51.848;107.620;2023-05-23T03:54:57;93768.38;;;22.28;23.04
59829;BME280;45708;51.848;107.620;2023-05-23T03:59:58;93756.72;;;22.24;21.47
59829;BME280;45708;51.848;107.620;2023-05-23T04:04:59;93760.53;;;22.14;21.08
59829;BME280;45708;51.848;107.620;2023-05-23T04:10:00;93753.63;;;21.96;21.00
59829;BME280;45708;51.848;107.620;2023-05-23T04:15:01;93759.84;;;22.26;21.06
59829;BME280;45708;51.848;107.620;2023-05-23T04:20:01;93736.84;;;22.37;20.47
59829;BME280;45708;51.848;107.620;2023-05-23T04:25:03;93738.75;;;22.37;19.89
59829;BME280;45708;51.848;107.620;2023-05-23T04:30:06;93750.28;;;22.37;21.58
59829;BME280;45708;51.848;107.620;2023-05-23T04:35:08;93740.63;;;22.66;21.77
59829;BME280;45708;51.848;107.620;2023-05-23T04:40:09;93731.25;;;22.42;21.19
59829;BME280;45708;51.848;107.620;2023-05-23T04:45:10;93730.53;;;22.63;21.15
59829;BME280;45708;51.848;107.620;2023-05-23T04:50:11;93736.28;;;22.53;19.69
59829;BME280;45708;51.848;107.620;2023-05-23T04:55:12;93723.47;;;22.50;19.96
59829;BME280;45708;51.848;107.620;2023-05-23T05:00:13;93712.78;;;22.11;19.49
59829;BME280;45708;51.848;107.620;2023-05-23T05:05:14;93712.72;;;22.20;19.43
59829;BME280;45708;51.848;107.620;2023-05-23T05:10:14;93681.63;;;22.10;18.60
59829;BME280;45708;51.848;107.620;2023-05-23T05:15:16;93698.53;;;22.11;18.96
59829;BME280;45708;51.848;107.620;2023-05-23T05:20:17;93692.94;;;21.86;18.83
59829;BME280;45708;51.848;107.620;2023-05-23T05:25:18;93688.75;;;21.98;19.22
59829;BME280;45708;51.848;107.620;2023-05-23T05:30:18;93684.63;;;22.09;19.61
59829;BME280;45708;51.848;107.620;2023-05-23T05:35:19;93680.81;;;22.10;19.13
59829;BME280;45708;51.848;107.620;2023-05-23T05:40:20;93677.03;;;22.02;19.47
59829;BME280;45708;51.848;107.620;2023-05-23T05:45:21;93663.13;;;22.09;19.33
59829;BME280;45708;51.848;107.620;2023-05-23T05:50:22;93668.81;;;21.99;19.33
59829;BME280;45708;51.848;107.620;2023-05-23T05:55:22;93626.38;;;21.83;19.27
59829;BME280;45708;51.848;107.620;2023-05-23T06:00:23;93643.72;;;22.24;19.35
59829;BME280;45708;51.848;107.620;2023-05-23T06:05:24;93614.09;;;22.03;19.22
59829;BME280;45708;51.848;107.620;2023-05-23T06:10:25;93643.84;;;22.28;19.54
59829;BME280;45708;51.848;107.620;2023-05-23T06:15:26;93621.44;;;22.24;19.51
59829;BME280;45708;51.848;107.620;2023-05-23T06:20:27;93634.94;;;22.36;19.70
59829;BME280;45708;51.848;107.620;2023-05-23T06:25:27;93630.22;;;22.54;19.63
59829;BME280;45708;51.848;107.620;2023-05-23T06:30:28;93614.84;;;22.33;19.28
59829;BME280;45708;51.848;107.620;2023-05-23T06:35:29;93609.47;;;22.33;19.70
59829;BME280;45708;51.848;107.620;2023-05-23T06:40:30;93601.59;;;22.28;20.30
59829;BME280;45708;51.848;107.620;2023-05-23T06:45:31;93622.22;;;22.24;20.22
59829;BME280;45708;51.848;107.620;2023-05-23T06:50:32;93621.47;;;22.15;20.33
59829;BME280;45708;51.848;107.620;2023-05-23T06:55:33;93600.81;;;22.07;20.40
59829;BME280;45708;51.848;107.620;2023-05-23T07:00:35;93596.03;;;22.33;20.14
59829;BME280;45708;51.848;107.620;2023-05-23T07:05:36;93594.25;;;22.37;19.95
59829;BME280;45708;51.848;107.620;2023-05-23T07:10:37;93600.47;;;22.08;20.49
59829;BME280;45708;51.848;107.620;2023-05-23T07:15:37;93593.41;;;21.95;20.47
59829;BME280;45708;51.848;107.620;2023-05-23T07:20:38;93586.59;;;21.98;20.39
59829;BME280;45708;51.848;107.620;2023-05-23T07:25:39;93573.25;;;22.10;19.93
59829;BME280;45708;51.848;107.620;2023-05-23T07:30:40;93573.63;;;22.41;19.83
59829;BME280;45708;51.848;107.620;2023-05-23T07:35:43;93588.97;;;22.41;20.16
59829;BME280;45708;51.848;107.620;2023-05-23T07:40:44;93571.28;;;22.19;20.27
59829;BME280;45708;51.848;107.620;2023-05-23T07:45:45;93578.34;;;22.03;20.66
59829;BME280;45708;51.848;107.620;2023-05-23T07:50:45;93562.59;;;21.93;20.92
59829;BME280;45708;51.848;107.620;2023-05-23T07:55:46;93546.22;;;21.56;20.95
59829;BME280;45708;51.848;107.620;2023-05-23T08:00:47;93551.47;;;21.73;20.81
59829;BME280;45708;51.848;107.620;2023-05-23T08:05:48;93537.63;;;21.33;20.95
59829;BME280;45708;51.848;107.620;2023-05-23T08:10:49;93563.16;;;21.48;21.45
59829;BME280;45708;51.848;107.620;2023-05-23T08:15:49;93559.44;;;21.61;22.00
59829;BME280;45708;51.848;107.620;2023-05-23T08:20:50;93573.91;;;21.48;22.13
59829;BME280;45708;51.848;107.620;2023-05-23T08:25:51;93561.69;;;21.30;21.24
59829;BME280;45708;51.848;107.620;2023-05-23T08:30:52;93568.69;;;20.96;21.73
59829;BME280;45708;51.848;107.620;2023-05-23T08:35:53;93562.47;;;20.66;21.88
59829;BME280;45708;51.848;107.620;2023-05-23T08:40:55;93572.84;;;20.85;22.02
59829;BME280;45708;51.848;107.620;2023-05-23T08:45:56;93549.91;;;21.05;22.29
59829;BME280;45708;51.848;107.620;2023-05-23T08:50:57;93560.56;;;21.22;22.14
59829;BME280;45708;51.848;107.620;2023-05-23T08:55:59;93571.41;;;20.87;22.08
59829;BME280;45708;51.848;107.620;2023-05-23T09:01:01;93573.03;;;20.71;22.42
59829;BME280;45708;51.848;107.620;2023-05-23T09:06:04;93567.16;;;20.78;22.98
59829;BME280;45708;51.848;107.620;2023-05-23T09:11:05;93563.38;;;20.79;22.81
59829;BME280;45708;51.848;107.620;2023-05-23T09:16:08;93568.25;;;20.94;23.58
59829;BME280;45708;51.848;107.620;2023-05-23T09:21:13;93559.06;;;20.95;23.10
59829;BME280;45708;51.848;107.620;2023-05-23T09:26:14;93572.56;;;20.60;23.61
59829;BME280;45708;51.848;107.620;2023-05-23T09:31:14;93557.75;;;20.02;23.46
59829;BME280;45708;51.848;107.620;2023-05-23T09:36:16;93570.16;;;19.64;24.26
59829;BME280;45708;51.848;107.620;2023-05-23T09:41:19;93568.25;;;19.73;24.57
59829;BME280;45708;51.848;107.620;2023-05-23T09:46:21;93558.84;;;19.93;24.02
59829;BME280;45708;51.848;107.620;2023-05-23T09:51:22;93559.34;;;20.03;23.47
59829;BME280;45708;51.848;107.620;2023-05-23T09:56:23;93550.81;;;19.84;23.80
59829;BME280;45708;51.848;107.620;2023-05-23T10:01:26;93561.97;;;19.78;23.94
59829;BME280;45708;51.848;107.620;2023-05-23T10:06:38;93570.31;;;19.76;24.75
59829;BME280;45708;51.848;107.620;2023-05-23T10:17:17;93569.72;;;19.96;24.43
59829;BME280;45708;51.848;107.620;2023-05-23T10:22:19;93562.78;;;19.95;24.66
59829;BME280;45708;51.848;107.620;2023-05-23T10:27:20;93559.75;;;19.80;25.05
59829;BME280;45708;51.848;107.620;2023-05-23T10:32:22;93569.22;;;19.68;25.36
59829;BME280;45708;51.848;107.620;2023-05-23T10:43:15;93562.94;;;19.33;26.00
59829;BME280;45708;51.848;107.620;2023-05-23T10:53:28;93567.47;;;19.24;26.45
59829;BME280;45708;51.848;107.620;2023-05-23T10:58:30;93608.16;;;19.04;27.35
59829;BME280;45708;51.848;107.620;2023-05-23T11:08:46;93622.19;;;18.20;29.71
59829;BME280;45708;51.848;107.620;2023-05-23T11:13:57;93601.97;;;17.91;30.21
59829;BME280;45708;51.848;107.620;2023-05-23T11:24:17;93629.97;;;17.67;31.42
59829;BME280;45708;51.848;107.620;2023-05-23T11:29:19;93632.84;;;17.56;31.64
59829;BME280;45708;51.848;107.620;2023-05-23T11:34:19;93628.88;;;17.40;32.13
59829;BME280;45708;51.848;107.620;2023-05-23T11:39:21;93637.28;;;17.20;33.02
59829;BME280;45708;51.848;107.620;2023-05-23T11:44:22;93632.28;;;16.86;33.26
59829;BME280;45708;51.848;107.620;2023-05-23T11:49:23;93640.84;;;16.69;33.74
59829;BME280;45708;51.848;107.620;2023-05-23T11:54:27;93637.94;;;16.65;34.04
59829;BME280;45708;51.848;107.620;2023-05-23T11:59:28;93627.22;;;16.52;34.23
59829;BME280;45708;51.848;107.620;2023-05-23T12:04:30;93612.53;;;16.35;34.89
59829;BME280;45708;51.848;107.620;2023-05-23T12:09:41;93633.53;;;16.23;34.64
59829;BME280;45708;51.848;107.620;2023-05-23T12:14:42;93642.22;;;16.10;35.37
59829;BME280;45708;51.848;107.620;2023-05-23T12:19:44;93629.78;;;15.87;35.72
59829;BME280;45708;51.848;107.620;2023-05-23T12:24:46;93637.56;;;15.83;36.01
59829;BME280;45708;51.848;107.620;2023-05-23T12:29:50;93631.13;;;15.65;35.89
59829;BME280;45708;51.848;107.620;2023-05-23T12:34:51;93621.00;;;15.38;36.67
59829;BME280;45708;51.848;107.620;2023-05-23T12:39:52;93579.13;;;15.01;36.45
59829;BME280;45708;51.848;107.620;2023-05-23T12:44:53;93638.78;;;15.19;36.81
59829;BME280;45708;51.848;107.620;2023-05-23T12:49:54;93632.69;;;15.18;36.92
59829;BME280;45708;51.848;107.620;2023-05-23T12:54:54;93663.91;;;15.08;37.43
59829;BME280;45708;51.848;107.620;2023-05-23T12:59:55;93666.09;;;15.01;37.91
59829;BME280;45708;51.848;107.620;2023-05-23T13:04:56;93666.53;;;14.84;38.13
59829;BME280;45708;51.848;107.620;2023-05-23T13:09:57;93667.78;;;14.63;38.58
59829;BME280;45708;51.848;107.620;2023-05-23T13:14:57;93676.34;;;14.54;38.69
59829;BME280;45708;51.848;107.620;2023-05-23T13:19:58;93690.25;;;14.36;39.14
59829;BME280;45708;51.848;107.620;2023-05-23T13:24:59;93688.25;;;14.18;39.29
59829;BME280;45708;51.848;107.620;2023-05-23T13:30:00;93680.06;;;14.09;39.39
59829;BME280;45708;51.848;107.620;2023-05-23T13:35:01;93703.09;;;14.19;39.60
59829;BME280;45708;51.848;107.620;2023-05-23T13:40:02;93700.47;;;14.14;40.17
59829;BME280;45708;51.848;107.620;2023-05-23T13:45:04;93688.34;;;13.97;40.59
59829;BME280;45708;51.848;107.620;2023-05-23T13:50:05;93693.25;;;13.75;40.89
59829;BME280;45708;51.848;107.620;2023-05-23T13:55:07;93703.63;;;13.61;41.28
59829;BME280;45708;51.848;107.620;2023-05-23T14:00:09;93699.44;;;13.50;41.90
59829;BME280;45708;51.848;107.620;2023-05-23T14:05:10;93704.25;;;13.33;42.15
59829;BME280;45708;51.848;107.620;2023-05-23T14:10:13;93708.00;;;13.27;42.61
59829;BME280;45708;51.848;107.620;2023-05-23T14:15:15;93698.44;;;13.16;43.56
59829;BME280;45708;51.848;107.620;2023-05-23T14:20:16;93714.13;;;12.92;44.54
59829;BME280;45708;51.848;107.620;2023-05-23T14:25:17;93716.25;;;12.69;45.59
59829;BME280;45708;51.848;107.620;2023-05-23T14:30:18;93703.00;;;12.44;45.56
59829;BME280;45708;51.848;107.620;2023-05-23T14:35:19;93708.25;;;12.34;46.41
59829;BME280;45708;51.848;107.620;2023-05-23T14:40:20;93660.56;;;11.98;46.98
59829;BME280;45708;51.848;107.620;2023-05-23T14:45:20;93682.81;;;12.07;47.10
59829;BME280;45708;51.848;107.620;2023-05-23T14:50:21;93706.13;;;12.10;47.21
59829;BME280;45708;51.848;107.620;2023-05-23T14:55:22;93698.44;;;12.04;47.05
59829;BME280;45708;51.848;107.620;2023-05-23T15:00:23;93699.19;;;11.94;47.53
59829;BME280;45708;51.848;107.620;2023-05-23T15:05:24;93704.47;;;11.84;47.64
59829;BME280;45708;51.848;107.620;2023-05-23T15:10:25;93703.88;;;11.77;48.56
59829;BME280;45708;51.848;107.620;2023-05-23T15:15:25;93710.25;;;11.81;48.20
59829;BME280;45708;51.848;107.620;2023-05-23T15:20:26;93707.06;;;11.79;48.69
59829;BME280;45708;51.848;107.620;2023-05-23T15:25:28;93711.91;;;11.97;47.89
59829;BME280;45708;51.848;107.620;2023-05-23T15:30:29;93716.97;;;12.09;47.56
59829;BME280;45708;51.848;107.620;2023-05-23T15:35:29;93705.06;;;12.16;47.21
59829;BME280;45708;51.848;107.620;2023-05-23T15:40:30;93709.81;;;12.14;47.88
59829;BME280;45708;51.848;107.620;2023-05-23T15:45:31;93694.94;;;11.93;47.27
59829;BME280;45708;51.848;107.620;2023-05-23T15:50:32;93710.84;;;11.98;48.19
59829;BME280;45708;51.848;107.620;2023-05-23T15:55:32;93697.34;;;11.90;48.44
59829;BME280;45708;51.848;107.620;2023-05-23T16:00:33;93706.59;;;11.92;48.40
59829;BME280;45708;51.848;107.620;2023-05-23T16:05:34;93734.13;;;11.96;48.40
59829;BME280;45708;51.848;107.620;2023-05-23T16:10:35;93709.81;;;12.04;47.81
59829;BME280;45708;51.848;107.620;2023-05-23T16:15:36;93730.25;;;12.34;47.48
59829;BME280;45708;51.848;107.620;2023-05-23T16:20:37;93720.97;;;12.32;47.20
59829;BME280;45708;51.848;107.620;2023-05-23T16:25:37;93723.09;;;12.30;47.30
59829;BME280;45708;51.848;107.620;2023-05-23T16:30:38;93736.84;;;12.22;47.39
59829;BME280;45708;51.848;107.620;2023-05-23T16:35:39;93728.59;;;12.08;47.93
59829;BME280;45708;51.848;107.620;2023-05-23T16:40:42;93733.09;;;12.02;48.12
59829;BME280;45708;51.848;107.620;2023-05-23T16:45:43;93729.94;;;12.05;47.93
59829;BME280;45708;51.848;107.620;2023-05-23T16:50:44;93719.63;;;12.14;47.64
59829;BME280;45708;51.848;107.620;2023-05-23T16:55:45;93722.28;;;12.19;47.05
59829;BME280;45708;51.848;107.620;2023-05-23T17:00:46;93709.81;;;12.14;47.49
59829;BME280;45708;51.848;107.620;2023-05-23T17:05:47;93712.69;;;11.98;48.04
59829;BME280;45708;51.848;107.620;2023-05-23T17:10:48;93711.00;;;11.76;49.08
59829;BME280;45708;51.848;107.620;2023-05-23T17:15:48;93720.72;;;11.55;48.95
59829;BME280;45708;51.848;107.620;2023-05-23T17:20:49;93707.63;;;11.28;49.40
59829;BME280;45708;51.848;107.620;2023-05-23T17:25:50;93718.34;;;11.07;49.87
59829;BME280;45708;51.848;107.620;2023-05-23T17:30:51;93715.78;;;10.80;50.63
59829;BME280;45708;51.848;107.620;2023-05-23T17:35:51;93713.22;;;10.58;51.45
59829;BME280;45708;51.848;107.620;2023-05-23T17:40:52;93722.63;;;10.44;51.77
59829;BME280;45708;51.848;107.620;2023-05-23T17:45:53;93719.81;;;10.23;51.91
59829;BME280;45708;51.848;107.620;2023-05-23T17:50:54;93721.19;;;10.04;52.65
59829;BME280;45708;51.848;107.620;2023-05-23T17:55:55;93723.09;;;9.87;52.37
59829;BME280;45708;51.848;107.620;2023-05-23T18:00:55;93725.25;;;9.68;52.58
59829;BME280;45708;51.848;107.620;2023-05-23T18:05:56;93721.19;;;9.60;52.66
59829;BME280;45708;51.848;107.620;2023-05-23T18:10:57;93726.16;;;9.57;53.40
59829;BME280;45708;51.848;107.620;2023-05-23T18:15:58;93718.41;;;9.45;53.72
59829;BME280;45708;51.848;107.620;2023-05-23T18:20:59;93715.03;;;9.28;54.15
59829;BME280;45708;51.848;107.620;2023-05-23T18:26:00;93718.13;;;9.03;54.97
59829;BME280;45708;51.848;107.620;2023-05-23T18:31:00;93727.22;;;8.95;54.59
59829;BME280;45708;51.848;107.620;2023-05-23T18:36:01;93714.41;;;8.82;55.28
59829;BME280;45708;51.848;107.620;2023-05-23T18:41:02;93720.06;;;8.74;55.97
59829;BME280;45708;51.848;107.620;2023-05-23T18:46:03;93716.44;;;8.80;56.00
59829;BME280;45708;51.848;107.620;2023-05-23T18:51:04;93703.75;;;8.77;56.40
59829;BME280;45708;51.848;107.620;2023-05-23T18:56:04;93702.03;;;8.66;56.82
59829;BME280;45708;51.848;107.620;2023-05-23T19:01:05;93694.69;;;8.51;57.37
59829;BME280;45708;51.848;107.620;2023-05-23T19:06:06;93689.44;;;8.34;58.37
59829;BME280;45708;51.848;107.620;2023-05-23T19:11:07;93682.06;;;8.19;59.08
59829;BME280;45708;51.848;107.620;2023-05-23T19:16:08;93686.00;;;8.50;58.08
59829;BME280;45708;51.848;107.620;2023-05-23T19:21:09;93688.16;;;8.70;57.78
59829;BME280;45708;51.848;107.620;2023-05-23T19:26:10;93678.50;;;8.59;57.90
59829;BME280;45708;51.848;107.620;2023-05-23T19:31:11;93663.28;;;8.44;58.22
59829;BME280;45708;51.848;107.620;2023-05-23T19:36:11;93671.25;;;8.49;58.84
59829;BME280;45708;51.848;107.620;2023-05-23T19:41:12;93677.63;;;8.53;57.78
59829;BME280;45708;51.848;107.620;2023-05-23T19:46:13;93669.25;;;8.57;57.78
59829;BME280;45708;51.848;107.620;2023-05-23T19:51:14;93659.13;;;8.48;58.25
59829;BME280;45708;51.848;107.620;2023-05-23T19:56:14;93654.97;;;8.36;57.80
59829;BME280;45708;51.848;107.620;2023-05-23T20:01:15;93664.09;;;8.45;57.75
59829;BME280;45708;51.848;107.620;2023-05-23T20:06:16;93604.75;;;8.04;57.95
59829;BME280;45708;51.848;107.620;2023-05-23T20:11:17;93646.19;;;8.30;58.64
59829;BME280;45708;51.848;107.620;2023-05-23T20:16:17;93654.50;;;8.22;58.70
59829;BME280;45708;51.848;107.620;2023-05-23T20:21:18;93654.81;;;8.09;59.60
59829;BME280;45708;51.848;107.620;2023-05-23T20:26:20;93652.00;;;7.99;60.93
59829;BME280;45708;51.848;107.620;2023-05-23T20:31:21;93646.50;;;7.83;62.09
59829;BME280;45708;51.848;107.620;2023-05-23T20:36:22;93655.38;;;7.66;62.88
59829;BME280;45708;51.848;107.620;2023-05-23T20:41:22;93633.97;;;7.45;63.48
59829;BME280;45708;51.848;107.620;2023-05-23T20:46:23;93652.78;;;7.54;63.22
59829;BME280;45708;51.848;107.620;2023-05-23T20:51:24;93642.53;;;7.41;63.85
59829;BME280;45708;51.848;107.620;2023-05-23T20:56:25;93637.13;;;7.30;63.95
59829;BME280;45708;51.848;107.620;2023-05-23T21:01:26;93640.78;;;7.29;63.11
59829;BME280;45708;51.848;107.620;2023-05-23T21:06:27;93629.63;;;7.22;63.20
59829;BME280;45708;51.848;107.620;2023-05-23T21:11:28;93620.59;;;7.47;63.07
59829;BME280;45708;51.848;107.620;2023-05-23T21:16:28;93621.94;;;7.61;62.51
59829;BME280;45708;51.848;107.620;2023-05-23T21:21:29;93615.03;;;7.60;62.84
59829;BME280;45708;51.848;107.620;2023-05-23T21:26:30;93613.03;;;7.96;62.39
59829;BME280;45708;51.848;107.620;2023-05-23T21:31:31;93610.00;;;8.37;60.44
59829;BME280;45708;51.848;107.620;2023-05-23T21:36:31;93599.44;;;8.71;58.86
59829;BME280;45708;51.848;107.620;2023-05-23T21:41:32;93591.09;;;9.01;57.39
59829;BME280;45708;51.848;107.620;2023-05-23T21:46:33;93606.31;;;9.15;56.82
59829;BME280;45708;51.848;107.620;2023-05-23T21:51:34;93618.63;;;9.10;59.08
59829;BME280;45708;51.848;107.620;2023-05-23T21:56:34;93623.44;;;8.96;59.97
59829;BME280;45708;51.848;107.620;2023-05-23T22:01:35;93619.72;;;9.14;59.67
59829;BME280;45708;51.848;107.620;2023-05-23T22:06:36;93620.19;;;9.55;58.81
59829;BME280;45708;51.848;107.620;2023-05-23T22:11:37;93613.38;;;9.86;58.17
59829;BME280;45708;51.848;107.620;2023-05-23T22:16:38;93599.34;;;10.12;57.05
59829;BME280;45708;51.848;107.620;2023-05-23T22:21:39;93595.13;;;11.73;53.41
59829;BME280;45708;51.848;107.620;2023-05-23T22:26:40;93583.94;;;13.68;48.56
59829;BME280;45708;51.848;107.620;2023-05-23T22:31:40;93569.97;;;15.12;45.69
59829;BME280;45708;51.848;107.620;2023-05-23T22:36:41;93563.28;;;15.39;43.99
59829;BME280;45708;51.848;107.620;2023-05-23T22:41:42;93562.75;;;15.79;43.11
59829;BME280;45708;51.848;107.620;2023-05-23T22:46:43;93554.94;;;16.99;40.76
59829;BME280;45708;51.848;107.620;2023-05-23T22:51:44;93564.53;;;17.42;39.03
59829;BME280;45708;51.848;107.620;2023-05-23T22:56:44;93557.94;;;17.25;39.21
59829;BME280;45708;51.848;107.620;2023-05-23T23:01:45;93562.75;;;16.50;39.08
59829;BME280;45708;51.848;107.620;2023-05-23T23:06:46;93547.53;;;16.69;38.63
59829;BME280;45708;51.848;107.620;2023-05-23T23:11:47;93544.00;;;17.42;37.63
59829;BME280;45708;51.848;107.620;2023-05-23T23:16:48;93544.28;;;18.58;35.59
59829;BME280;45708;51.848;107.620;2023-05-23T23:21:49;93538.53;;;19.35;34.28
59829;BME280;45708;51.848;107.620;2023-05-23T23:26:50;93537.25;;;19.89;32.67
59829;BME280;45708;51.848;107.620;2023-05-23T23:31:51;93535.50;;;19.93;32.60
59829;BME280;45708;51.848;107.620;2023-05-23T23:36:51;93535.69;;;20.95;31.04
59829;BME280;45708;51.848;107.620;2023-05-23T23:41:52;93522.97;;;22.02;29.34
59829;BME280;45708;51.848;107.620;2023-05-23T23:46:53;93510.63;;;22.42;28.09
59829;BME280;45708;51.848;107.620;2023-05-23T23:51:54;93518.09;;;22.58;27.95
59829;BME280;45708;51.848;107.620;2023-05-23T23:56:54;93502.22;;;22.77;27.44
